Weather History for KMWM - October, 2011

Change the Weather History Date:

Tuesday, October 4, 2011

  Actual Average Record
Temperature  
Mean Temperature 72 °F -  
Max Temperature 89 °F 65 °F 89 °F (2011)
Min Temperature 55 °F 40 °F 26 °F (1989)
Cooling Degree Days 7    
Growing Degree Days 22 (Base 50)    
Moisture  
Dew Point 43 °F    
Average Humidity 38    
Maximum Humidity 55    
Minimum Humidity 21    
Precipitation  
Precipitation 0.00 in - - ()
Sea Level Pressure  
Sea Level Pressure 30.08 in    
Wind  
Wind Speed 9 mph (SSE)    
Max Wind Speed 20 mph    
Max Gust Speed 26 mph    
Visibility 10 miles    
Events      
Averages and records for this station are not official NWS values.
T = Trace of Precipitation, MM = Missing Value Source: NWS Daily Summary

Daily Weather History Graph

Daily Weather History Graph

Search for Another Location

Airport or City:

Trip Planner

Search our weather history database for the weather conditions in past years. The results will help you decide how hot, cold, wet, or windy it might be!

Date:

Astronomy

Oct. 04, 2011 Rise Set
Actual Time 7:21 AM CDT 6:56 PM CDT
Civil Twilight 6:52 AM CDT 7:25 PM CDT
Nautical Twilight 6:19 AM CDT 7:58 PM CDT
Astronomical Twilight 5:45 AM CDT 8:31 PM CDT
Moon 3:11 PM CDT (10/4) No Moon Set
Length of Visible Light 12h 32m
Length of Day
11h 35m
First Quarter, 56% of the Moon is Illuminated
Oct 4
First Quarter
Oct 11
Full
Oct 19
Last Quarter
Oct 26
New
Nov 2
First Quarter

Hourly Weather History & Observations

Time (CDT) Temp. Dew Point Humidity Pressure Visibility Wind Dir Wind Speed Gust Speed Precip Events Conditions
12:12 AM 64.4 °F 39.2 °F 40% 30.14 in 10.0 mi SSE 9.2 mph - N/A   Clear
12:32 AM 62.6 °F 39.2 °F 42% 30.14 in 10.0 mi SSE 6.9 mph - N/A   Clear
12:53 AM 62.6 °F 41.0 °F 45% 30.14 in 10.0 mi South 4.6 mph - N/A   Clear
1:13 AM 60.8 °F 39.2 °F 45% 30.14 in 10.0 mi South 3.5 mph - N/A   Clear
1:32 AM 60.8 °F 41.0 °F 48% 30.13 in 10.0 mi SSE 6.9 mph - N/A   Clear
1:53 AM 60.8 °F 41.0 °F 48% 30.14 in 10.0 mi South 4.6 mph - N/A   Clear
2:12 AM 62.6 °F 41.0 °F 45% 30.14 in 10.0 mi South 5.8 mph - N/A   Clear
2:32 AM 60.8 °F 42.8 °F 52% 30.14 in 10.0 mi South 5.8 mph - N/A   Clear
2:53 AM 60.8 °F 42.8 °F 52% 30.13 in 10.0 mi SSE 5.8 mph - N/A   Clear
3:13 AM 59.0 °F 41.0 °F 51% 30.13 in 10.0 mi South 5.8 mph - N/A   Clear
3:32 AM 59.0 °F 42.8 °F 55% 30.13 in 10.0 mi SSE 6.9 mph - N/A   Clear
3:53 AM 60.8 °F 42.8 °F 52% 30.12 in 10.0 mi SSE 5.8 mph - N/A   Clear
4:13 AM 59.0 °F 41.0 °F 51% 30.12 in 10.0 mi SSE 5.8 mph - N/A   Clear
4:32 AM 59.0 °F 41.0 °F 51% 30.12 in 10.0 mi SSE 5.8 mph - N/A   Clear
4:53 AM 57.2 °F 41.0 °F 55% 30.12 in 10.0 mi SSE 6.9 mph - N/A   Clear
5:12 AM 57.2 °F 41.0 °F 55% 30.12 in 10.0 mi SSE 6.9 mph - N/A   Clear
5:32 AM 57.2 °F 39.2 °F 51% 30.12 in 10.0 mi SSE 8.1 mph - N/A   Clear
6:12 AM 59.0 °F 39.2 °F 48% 30.11 in 10.0 mi SSE 9.2 mph - N/A   Clear
6:32 AM 59.0 °F 39.2 °F 48% 30.11 in 10.0 mi SSE 10.4 mph - N/A   Clear
6:52 AM 59.0 °F 39.2 °F 48% 30.11 in 10.0 mi SSE 9.2 mph - N/A   Clear
7:12 AM 57.2 °F 39.2 °F 51% 30.12 in 10.0 mi SE 8.1 mph - N/A   Clear
7:33 AM 55.4 °F 39.2 °F 54% 30.12 in 10.0 mi SE 6.9 mph - N/A   Clear
7:52 AM 55.4 °F 39.2 °F 54% 30.12 in 10.0 mi SE 9.2 mph - N/A   Clear
8:12 AM 57.2 °F 39.2 °F 51% 30.12 in 10.0 mi SSE 9.2 mph - N/A   Clear
8:33 AM 60.8 °F 41.0 °F 48% 30.12 in 10.0 mi SSE 9.2 mph - N/A   Clear
8:52 AM 62.6 °F 41.0 °F 45% 30.12 in 10.0 mi SSE 11.5 mph - N/A   Clear
9:12 AM 64.4 °F 42.8 °F 45% 30.12 in 10.0 mi SSE 10.4 mph - N/A   Clear
9:33 AM 66.2 °F 42.8 °F 43% 30.12 in 10.0 mi SSE 10.4 mph - N/A   Clear
9:53 AM 69.8 °F 42.8 °F 38% 30.12 in 10.0 mi SSE 10.4 mph - N/A   Clear
10:12 AM 71.6 °F 42.8 °F 35% 30.12 in 10.0 mi SSE 11.5 mph 16.1 mph N/A   Clear
10:33 AM 73.4 °F 42.8 °F 33% 30.11 in 10.0 mi SSE 12.7 mph - N/A   Clear
10:52 AM 75.2 °F 42.8 °F 31% 30.10 in 10.0 mi SSE 15.0 mph 19.6 mph N/A   Clear
11:12 AM 78.8 °F 42.8 °F 28% 30.10 in 10.0 mi SSE 13.8 mph 18.4 mph N/A   Clear
11:33 AM 80.6 °F 41.0 °F 24% 30.10 in 10.0 mi SSE 16.1 mph 21.9 mph N/A   Clear
11:52 AM 80.6 °F 41.0 °F 24% 30.09 in 10.0 mi SSE 17.3 mph 23.0 mph N/A   Clear
12:12 PM 82.4 °F 42.8 °F 25% 30.08 in 10.0 mi SSE 16.1 mph 23.0 mph N/A   Clear
12:33 PM 82.4 °F 42.8 °F 25% 30.07 in 10.0 mi SSE 19.6 mph 23.0 mph N/A   Clear
12:52 PM 84.2 °F 42.8 °F 23% 30.07 in 10.0 mi SSE 18.4 mph - N/A   Clear
1:12 PM 84.2 °F 42.8 °F 23% 30.06 in 10.0 mi SSE 16.1 mph 26.5 mph N/A   Clear
1:33 PM 87.8 °F 42.8 °F 21% 30.05 in 10.0 mi South 13.8 mph 21.9 mph N/A   Clear
2:13 PM 87.8 °F 44.6 °F 22% 30.03 in 10.0 mi SSE 19.6 mph 26.5 mph N/A   Clear
2:33 PM 89.6 °F 44.6 °F 21% 30.02 in 10.0 mi SSE 15.0 mph 21.9 mph N/A   Clear
2:52 PM 86.0 °F 44.6 °F 23% 30.02 in 10.0 mi SSE 13.8 mph 26.5 mph N/A   Clear
3:12 PM 87.8 °F 44.6 °F 22% 30.02 in 10.0 mi South 15.0 mph 23.0 mph N/A   Clear
3:52 PM 86.0 °F 44.6 °F 23% 30.01 in 10.0 mi SSE 12.7 mph 17.3 mph N/A   Clear
4:13 PM 87.8 °F 44.6 °F 22% 30.00 in 10.0 mi SSE 16.1 mph 23.0 mph N/A   Clear
4:32 PM 87.8 °F 46.4 °F 24% 30.00 in 10.0 mi SSE 15.0 mph 20.7 mph N/A   Clear
5:13 PM 87.8 °F 46.4 °F 24% 30.00 in 10.0 mi South 12.7 mph 21.9 mph N/A   Clear
5:33 PM 87.8 °F 46.4 °F 24% 30.00 in 10.0 mi SSE 10.4 mph 17.3 mph N/A   Clear
5:52 PM 87.8 °F 46.4 °F 24% 30.00 in 10.0 mi SSE 8.1 mph - N/A   Clear
6:13 PM 87.8 °F 46.4 °F 24% 30.00 in 10.0 mi SSE 8.1 mph - N/A   Clear
6:32 PM 84.2 °F 48.2 °F 29% 30.00 in 10.0 mi SSE 9.2 mph - N/A   Clear
6:52 PM 82.4 °F 48.2 °F 30% 30.00 in 10.0 mi SSE 8.1 mph - N/A   Clear
7:13 PM 80.6 °F 46.4 °F 30% 30.01 in 10.0 mi SE 8.1 mph - N/A   Clear
7:33 PM 78.8 °F 46.4 °F 32% 30.01 in 10.0 mi SE 9.2 mph - N/A   Clear
8:13 PM 77.0 °F 48.2 °F 36% 30.02 in 10.0 mi SE 8.1 mph - N/A   Clear
8:33 PM 75.2 °F 48.2 °F 38% 30.02 in 10.0 mi SSE 10.4 mph - N/A   Clear
9:32 PM 73.4 °F 48.2 °F 41% 30.02 in 10.0 mi SSE 9.2 mph - N/A   Clear
9:53 PM 73.4 °F 48.2 °F 41% 30.02 in 10.0 mi SSE 9.2 mph - N/A   Clear
10:12 PM 71.6 °F 48.2 °F 43% 30.02 in 10.0 mi SSE 9.2 mph - N/A   Clear
10:33 PM 73.4 °F 48.2 °F 41% 30.02 in 10.0 mi SSE 11.5 mph - N/A   Clear
10:53 PM 71.6 °F 48.2 °F 43% 30.02 in 10.0 mi SSE 10.4 mph - N/A   Clear
11:12 PM 71.6 °F 48.2 °F 43% 30.02 in 10.0 mi SSE 9.2 mph - N/A   Clear
11:33 PM 71.6 °F 48.2 °F 43% 30.02 in 10.0 mi SSE 9.2 mph - N/A   Clear
11:52 PM 71.6 °F 48.2 °F 43% 30.02 in 10.0 mi SSE 9.2 mph - N/A   Clear